createdAt,value
2023-02-02T00:01:52.679Z,2.14
2023-02-02T00:04:28.421Z,2.13
2023-02-02T00:06:57.289Z,2.15
2023-02-02T00:09:24.735Z,2.13
2023-02-02T00:11:51.387Z,2.19
2023-02-02T00:14:18.973Z,2.06
2023-02-02T00:16:53.739Z,2.05
2023-02-02T00:19:24.761Z,2.01
2023-02-02T00:21:51.355Z,1.80
2023-02-02T00:24:18.854Z,1.81
2023-02-02T00:26:48.923Z,1.85
2023-02-02T00:29:20.898Z,1.71
2023-02-02T00:31:48.060Z,1.71
2023-02-02T00:34:16.119Z,1.70
2023-02-02T00:36:43.879Z,1.70
2023-02-02T00:39:14.550Z,1.73
2023-02-02T00:41:41.854Z,1.77
2023-02-02T00:44:27.055Z,1.73
2023-02-02T00:46:53.647Z,1.72
2023-02-02T00:49:20.532Z,1.75
2023-02-02T00:51:47.207Z,1.78
2023-02-02T00:54:16.534Z,1.84
2023-02-02T00:56:43.419Z,1.87
2023-02-02T00:59:10.004Z,1.79
2023-02-02T01:01:36.634Z,1.80
2023-02-02T01:04:03.245Z,1.81
2023-02-02T01:06:29.930Z,1.84
2023-02-02T01:08:56.525Z,1.95
2023-02-02T01:11:23.562Z,1.95
2023-02-02T01:13:50.159Z,1.94
2023-02-02T01:16:17.059Z,2.01
2023-02-02T01:18:43.936Z,2.01
2023-02-02T01:21:12.571Z,2.06
2023-02-02T01:23:40.114Z,2.10
2023-02-02T01:26:08.897Z,2.14
2023-02-02T01:28:36.160Z,2.14
2023-02-02T01:31:14.662Z,2.14
2023-02-02T01:33:42.356Z,2.15
2023-02-02T01:36:12.536Z,2.17
2023-02-02T01:38:40.248Z,2.19
2023-02-02T01:41:07.313Z,2.21
2023-02-02T01:43:45.571Z,2.22
2023-02-02T01:46:16.165Z,2.24
2023-02-02T01:48:47.103Z,2.25
2023-02-02T01:51:19.136Z,2.29
2023-02-02T01:53:47.984Z,2.24
2023-02-02T01:56:28.818Z,2.21
2023-02-02T01:58:56.124Z,2.18
2023-02-02T02:01:22.812Z,2.18
2023-02-02T02:03:49.438Z,2.15
2023-02-02T02:06:18.768Z,2.16
2023-02-02T02:09:03.628Z,2.15
2023-02-02T02:11:31.995Z,2.19
2023-02-02T02:14:19.655Z,2.17
2023-02-02T02:17:10.846Z,2.21
2023-02-02T02:20:08.035Z,2.26
2023-02-02T02:23:02.247Z,2.29
2023-02-02T02:26:00.239Z,2.17
2023-02-02T02:28:43.287Z,2.13
2023-02-02T02:31:24.933Z,2.13
2023-02-02T02:33:51.533Z,2.19
2023-02-02T02:36:20.974Z,2.29
2023-02-02T02:39:12.364Z,2.30
2023-02-02T02:41:49.176Z,2.28
2023-02-02T02:44:19.456Z,2.27
2023-02-02T02:46:48.131Z,2.30
2023-02-02T02:49:14.722Z,2.36
2023-02-02T02:51:44.604Z,2.26
2023-02-02T02:54:36.317Z,2.21
2023-02-02T02:57:21.262Z,2.09
2023-02-02T03:00:12.317Z,2.05
2023-02-02T03:02:51.267Z,1.98
2023-02-02T03:05:48.270Z,1.97
2023-02-02T03:08:36.638Z,1.95
2023-02-02T03:11:06.797Z,2.01
2023-02-02T03:13:34.191Z,2.07
2023-02-02T03:16:01.121Z,2.05
2023-02-02T03:18:30.557Z,2.09
2023-02-02T03:20:57.290Z,2.18
2023-02-02T03:23:23.958Z,2.22
2023-02-02T03:25:50.983Z,2.28
2023-02-02T03:28:18.972Z,2.25
2023-02-02T03:30:47.568Z,2.29
2023-02-02T03:33:15.770Z,2.33
2023-02-02T03:35:42.563Z,2.38
2023-02-02T03:38:09.195Z,2.40
2023-02-02T03:40:36.062Z,2.34
2023-02-02T03:43:03.049Z,2.40
2023-02-02T03:45:30.209Z,2.38
2023-02-02T03:47:56.850Z,2.40
2023-02-02T03:50:25.245Z,2.42
2023-02-02T03:52:51.795Z,2.43
2023-02-02T03:55:18.375Z,2.52
2023-02-02T03:57:44.930Z,2.54
2023-02-02T04:00:12.231Z,2.55
2023-02-02T04:02:39.030Z,2.54
2023-02-02T04:05:06.072Z,2.52
2023-02-02T04:07:32.756Z,2.55
2023-02-02T04:09:59.309Z,2.63
2023-02-02T04:12:25.956Z,2.63
2023-02-02T04:14:52.595Z,2.55
2023-02-02T04:17:19.147Z,2.50
2023-02-02T04:19:45.731Z,2.46
2023-02-02T04:22:12.333Z,2.42
2023-02-02T04:24:38.944Z,2.31
2023-02-02T04:27:05.552Z,2.40
2023-02-02T04:29:32.124Z,2.40
2023-02-02T04:31:58.713Z,2.34
2023-02-02T04:34:25.327Z,2.43
2023-02-02T04:36:51.911Z,2.30
2023-02-02T04:39:18.472Z,2.44
2023-02-02T04:41:45.059Z,2.34
2023-02-02T04:44:16.045Z,2.42
2023-02-02T04:46:43.803Z,2.39
2023-02-02T04:49:11.658Z,2.37
2023-02-02T04:51:39.939Z,2.40
2023-02-02T04:54:07.370Z,2.41
2023-02-02T04:56:35.021Z,2.31
2023-02-02T04:59:01.733Z,2.37
2023-02-02T05:01:29.547Z,2.38
2023-02-02T05:03:56.288Z,2.47
2023-02-02T05:06:23.022Z,2.55
2023-02-02T05:08:49.947Z,2.53
2023-02-02T05:11:20.111Z,2.50
2023-02-02T05:13:52.444Z,2.58
2023-02-02T05:16:20.396Z,2.57
2023-02-02T05:18:51.857Z,2.61
2023-02-02T05:21:19.343Z,2.63
2023-02-02T05:23:46.010Z,2.63
2023-02-02T05:26:16.816Z,2.71
2023-02-02T05:28:43.490Z,2.65
2023-02-02T05:31:10.587Z,2.66
2023-02-02T05:33:37.226Z,2.83
2023-02-02T05:36:04.559Z,2.76
2023-02-02T05:38:31.365Z,2.70
2023-02-02T05:40:57.976Z,2.78
2023-02-02T05:43:28.965Z,2.83
2023-02-02T05:45:55.823Z,2.81
2023-02-02T05:48:22.475Z,2.93
2023-02-02T05:51:02.991Z,3.00
2023-02-02T05:53:31.049Z,2.97
2023-02-02T05:55:57.625Z,2.91
2023-02-02T05:58:24.497Z,2.78
2023-02-02T06:00:51.124Z,2.82
2023-02-02T06:03:17.844Z,2.63
2023-02-02T06:05:44.552Z,2.79
2023-02-02T06:08:11.199Z,2.63
2023-02-02T06:10:41.835Z,2.57
2023-02-02T06:13:09.090Z,2.55
2023-02-02T06:15:36.289Z,2.47
2023-02-02T06:18:03.132Z,2.66
2023-02-02T06:20:29.973Z,2.69
2023-02-02T06:22:56.539Z,2.66
2023-02-02T06:25:23.624Z,2.78
2023-02-02T06:27:50.516Z,2.58
2023-02-02T06:30:17.286Z,2.80
2023-02-02T06:32:43.867Z,2.92
2023-02-02T06:35:10.488Z,3.00
2023-02-02T06:37:39.101Z,3.07
2023-02-02T06:40:07.385Z,3.17
2023-02-02T06:42:34.394Z,3.20
2023-02-02T06:45:00.960Z,2.97
2023-02-02T06:47:27.570Z,2.94
2023-02-02T06:49:54.585Z,2.39
2023-02-02T06:52:21.242Z,2.69
2023-02-02T06:54:47.915Z,2.86
2023-02-02T06:57:14.570Z,2.99
2023-02-02T06:59:41.747Z,2.81
2023-02-02T07:02:12.406Z,2.75
2023-02-02T07:04:39.562Z,2.86
2023-02-02T07:07:06.235Z,2.94
2023-02-02T07:09:34.053Z,3.13
2023-02-02T07:12:00.683Z,3.33
2023-02-02T07:14:27.536Z,3.30
2023-02-02T07:16:54.152Z,3.45
2023-02-02T07:19:20.788Z,3.41
2023-02-02T07:21:47.400Z,3.40
2023-02-02T07:24:14.028Z,3.40
2023-02-02T07:26:40.914Z,3.32
2023-02-02T07:29:07.574Z,3.05
2023-02-02T07:31:36.354Z,2.71
2023-02-02T07:34:04.152Z,3.03
2023-02-02T07:36:31.156Z,2.88
2023-02-02T07:38:57.946Z,2.88
2023-02-02T07:41:25.170Z,3.15
2023-02-02T07:43:52.296Z,3.20
2023-02-02T07:46:19.861Z,3.23
2023-02-02T07:48:46.812Z,3.17
2023-02-02T07:51:16.489Z,3.30
2023-02-02T07:53:47.761Z,3.23
2023-02-02T07:56:23.670Z,2.76
2023-02-02T07:58:52.523Z,2.34
2023-02-02T08:01:20.672Z,2.33
2023-02-02T08:03:47.362Z,2.54
2023-02-02T08:06:21.558Z,2.75
2023-02-02T08:08:48.990Z,2.84
2023-02-02T08:11:18.862Z,3.01
2023-02-02T08:13:49.520Z,3.11
2023-02-02T08:16:16.640Z,2.75
2023-02-02T08:18:44.004Z,2.56
2023-02-02T08:21:11.359Z,2.56
2023-02-02T08:23:39.711Z,2.67
2023-02-02T08:26:15.546Z,2.67
2023-02-02T08:28:43.581Z,2.45
2023-02-02T08:31:30.592Z,2.57
2023-02-02T08:33:58.719Z,2.90
2023-02-02T08:36:27.474Z,3.28
2023-02-02T08:38:54.136Z,3.39
2023-02-02T08:41:23.783Z,3.45
2023-02-02T08:43:51.003Z,3.62
2023-02-02T08:46:19.890Z,3.62
2023-02-02T08:48:47.447Z,3.63
2023-02-02T08:51:16.303Z,3.46
2023-02-02T08:53:43.390Z,3.57
2023-02-02T08:56:12.687Z,3.54
2023-02-02T08:58:40.022Z,3.76
2023-02-02T09:01:21.820Z,3.53
2023-02-02T09:03:49.041Z,3.78
2023-02-02T09:06:18.494Z,3.77
2023-02-02T09:08:46.403Z,3.85
2023-02-02T09:11:18.712Z,4.00
2023-02-02T09:13:47.289Z,4.01
2023-02-02T09:16:15.881Z,3.81
2023-02-02T09:18:43.689Z,4.07
2023-02-02T09:21:12.307Z,4.18
2023-02-02T09:23:40.801Z,4.09
2023-02-02T09:26:15.058Z,4.08
2023-02-02T09:28:44.581Z,4.09
2023-02-02T09:31:11.956Z,4.04
2023-02-02T09:33:39.050Z,4.00
2023-02-02T09:36:16.301Z,3.80
2023-02-02T09:38:44.481Z,3.86
2023-02-02T09:41:26.097Z,3.99
2023-02-02T09:44:12.431Z,3.98
2023-02-02T09:47:00.673Z,3.95
2023-02-02T09:49:56.349Z,3.90
2023-02-02T09:52:38.072Z,3.80
2023-02-02T09:55:19.947Z,3.93
2023-02-02T09:57:51.951Z,4.12
2023-02-02T10:00:42.353Z,4.30
2023-02-02T10:03:34.019Z,4.06
2023-02-02T10:06:32.799Z,4.32
2023-02-02T10:09:17.767Z,4.29
2023-02-02T10:12:06.731Z,4.36
2023-02-02T10:14:42.108Z,4.29
2023-02-02T10:17:28.950Z,4.51
2023-02-02T10:20:02.519Z,4.33
2023-02-02T10:22:33.223Z,4.47
2023-02-02T10:24:59.892Z,4.51
2023-02-02T10:27:39.025Z,4.54
2023-02-02T10:30:31.546Z,4.60
2023-02-02T10:33:02.253Z,4.68
2023-02-02T10:35:47.432Z,4.52
2023-02-02T10:38:58.515Z,4.76
2023-02-02T10:41:46.603Z,4.67
2023-02-02T10:44:28.968Z,4.65
2023-02-02T10:46:59.408Z,4.70
2023-02-02T10:49:33.295Z,4.79
2023-02-02T10:52:06.054Z,4.78
2023-02-02T10:54:55.798Z,4.77
2023-02-02T10:57:54.334Z,4.62
2023-02-02T11:00:23.629Z,4.63
2023-02-02T11:02:52.520Z,4.70
2023-02-02T11:05:43.399Z,4.87
2023-02-02T11:08:13.497Z,4.56
2023-02-02T11:10:40.460Z,4.06
2023-02-02T11:13:11.594Z,4.17
2023-02-02T11:15:38.281Z,4.48
2023-02-02T11:18:27.317Z,4.33
2023-02-02T11:20:53.911Z,3.98
2023-02-02T11:23:21.636Z,4.21
2023-02-02T11:25:59.281Z,4.19
2023-02-02T11:28:30.328Z,3.69
2023-02-02T11:30:57.409Z,4.20
2023-02-02T11:33:30.163Z,4.34
2023-02-02T11:36:03.716Z,4.44
2023-02-02T11:38:31.092Z,4.37
2023-02-02T11:41:03.933Z,4.47
2023-02-02T11:43:41.292Z,4.47
2023-02-02T11:46:21.593Z,4.40
2023-02-02T11:49:00.691Z,4.45
2023-02-02T11:51:28.697Z,4.33
2023-02-02T11:54:14.063Z,4.49
2023-02-02T11:56:41.950Z,4.52
2023-02-02T11:59:28.831Z,4.55
2023-02-02T12:02:20.554Z,4.64
2023-02-02T12:04:53.330Z,4.70
2023-02-02T12:07:33.031Z,4.57
2023-02-02T12:10:13.970Z,4.16
2023-02-02T12:12:49.548Z,4.36
2023-02-02T12:15:19.960Z,4.36
2023-02-02T12:17:48.519Z,3.93
2023-02-02T12:20:33.608Z,4.43
2023-02-02T12:23:00.127Z,4.58
2023-02-02T12:25:51.067Z,4.89
2023-02-02T12:28:39.092Z,4.83
2023-02-02T12:31:29.462Z,4.90
2023-02-02T12:34:02.073Z,4.83
2023-02-02T12:36:36.348Z,4.43
2023-02-02T12:39:27.927Z,4.44
2023-02-02T12:42:37.819Z,4.60
2023-02-02T12:45:24.696Z,4.54
2023-02-02T12:48:09.982Z,4.46
2023-02-02T12:51:05.422Z,4.47
2023-02-02T12:54:33.571Z,4.48
2023-02-02T12:57:31.255Z,4.42
2023-02-02T13:00:16.087Z,4.63
2023-02-02T13:03:03.524Z,4.22
2023-02-02T13:05:48.562Z,3.56
2023-02-02T13:08:30.768Z,3.35
2023-02-02T13:11:30.125Z,3.89
2023-02-02T13:14:17.686Z,3.63
2023-02-02T13:16:49.265Z,3.63
2023-02-02T13:19:31.207Z,3.99
2023-02-02T13:22:00.702Z,3.94
2023-02-02T13:24:31.843Z,3.86
2023-02-02T13:27:05.985Z,4.12
2023-02-02T13:29:46.049Z,3.74
2023-02-02T13:32:19.086Z,3.94
2023-02-02T13:34:50.764Z,4.10
2023-02-02T13:37:25.458Z,4.02
2023-02-02T13:40:16.326Z,4.26
2023-02-02T13:43:20.643Z,4.24
2023-02-02T13:46:02.297Z,4.30
2023-02-02T13:48:36.950Z,4.28
2023-02-02T13:51:41.173Z,4.26
2023-02-02T13:54:26.149Z,4.11
2023-02-02T13:57:05.418Z,4.13
2023-02-02T14:00:09.133Z,4.04
2023-02-02T14:02:51.618Z,4.08
2023-02-02T14:05:28.654Z,3.56
2023-02-02T14:08:04.463Z,3.42
2023-02-02T14:10:40.044Z,3.75
2023-02-02T14:13:28.677Z,3.75
2023-02-02T14:15:57.212Z,3.57
2023-02-02T14:18:48.801Z,3.36
2023-02-02T14:21:33.552Z,3.59
2023-02-02T14:24:05.018Z,3.36
2023-02-02T14:26:49.778Z,3.39
2023-02-02T14:29:31.770Z,3.26
2023-02-02T14:32:01.661Z,3.17
2023-02-02T14:34:30.687Z,2.98
2023-02-02T14:37:09.763Z,2.84
2023-02-02T14:39:49.539Z,2.78
2023-02-02T14:42:59.108Z,2.49
2023-02-02T14:45:31.445Z,2.31
2023-02-02T14:48:07.921Z,2.41
2023-02-02T14:50:40.642Z,2.55
2023-02-02T14:53:13.252Z,2.45
2023-02-02T14:56:01.269Z,2.50
2023-02-02T14:58:48.408Z,2.45
2023-02-02T15:01:18.041Z,2.31
2023-02-02T15:03:51.031Z,2.26
2023-02-02T15:06:34.347Z,2.21
2023-02-02T15:09:33.670Z,2.26
2023-02-02T15:12:02.757Z,2.28
2023-02-02T15:14:35.823Z,2.24
2023-02-02T15:17:07.108Z,2.24
2023-02-02T15:19:40.667Z,2.19
2023-02-02T15:22:34.004Z,2.07
2023-02-02T15:25:07.936Z,2.08
2023-02-02T15:27:38.724Z,2.21
2023-02-02T15:30:14.568Z,2.18
2023-02-02T15:32:42.882Z,2.19
2023-02-02T15:35:20.584Z,2.16
2023-02-02T15:37:53.345Z,2.13
2023-02-02T15:40:25.559Z,2.15
2023-02-02T15:42:58.803Z,2.14
2023-02-02T15:45:28.458Z,2.03
2023-02-02T15:47:57.992Z,2.13
2023-02-02T15:50:25.154Z,2.13
2023-02-02T15:52:53.805Z,2.20
2023-02-02T15:55:36.105Z,2.18
2023-02-02T15:58:03.659Z,2.21
2023-02-02T16:00:38.065Z,2.16
2023-02-02T16:03:07.237Z,2.13
2023-02-02T16:05:36.620Z,2.20
2023-02-02T16:08:08.458Z,2.11
2023-02-02T16:10:35.524Z,2.07
2023-02-02T16:13:03.094Z,2.12
2023-02-02T16:15:31.956Z,2.07
2023-02-02T16:18:08.044Z,2.14
2023-02-02T16:20:38.195Z,2.14
2023-02-02T16:23:12.356Z,2.17
2023-02-02T16:25:47.024Z,2.21
2023-02-02T16:28:20.300Z,2.25
2023-02-02T16:30:47.073Z,2.16
2023-02-02T16:33:28.836Z,2.18
2023-02-02T16:35:56.223Z,2.17
2023-02-02T16:38:37.418Z,2.30
2023-02-02T16:41:08.874Z,2.29
2023-02-02T16:43:38.147Z,2.20
2023-02-02T16:46:13.577Z,2.24
2023-02-02T16:48:46.600Z,2.34
2023-02-02T16:51:16.122Z,2.48
2023-02-02T16:53:44.955Z,2.41
2023-02-02T16:56:27.730Z,2.50
2023-02-02T16:58:58.066Z,2.49
2023-02-02T17:02:23.541Z,2.41
2023-02-02T17:04:56.443Z,2.39
2023-02-02T17:07:23.808Z,2.45
2023-02-02T17:09:50.444Z,2.26
2023-02-02T17:12:32.186Z,2.19
2023-02-02T17:15:04.983Z,2.22
2023-02-02T17:17:31.619Z,2.17
2023-02-02T17:19:58.182Z,2.24
2023-02-02T17:22:27.767Z,2.32
2023-02-02T17:24:54.661Z,2.27
2023-02-02T17:27:32.110Z,2.28
2023-02-02T17:30:04.863Z,2.41
2023-02-02T17:32:31.415Z,2.17
2023-02-02T17:34:58.078Z,2.18
2023-02-02T17:37:24.718Z,2.02
2023-02-02T17:39:51.475Z,2.20
2023-02-02T17:42:26.782Z,2.33
2023-02-02T17:44:53.445Z,2.29
2023-02-02T17:47:20.267Z,2.20
2023-02-02T17:49:46.846Z,2.41
2023-02-02T17:52:14.774Z,2.48
2023-02-02T17:54:41.310Z,2.20
2023-02-02T17:57:07.885Z,2.53
2023-02-02T17:59:34.468Z,2.79
2023-02-02T18:02:01.751Z,2.53
2023-02-02T18:04:28.666Z,2.37
2023-02-02T18:06:55.309Z,1.76
2023-02-02T18:09:22.329Z,1.47
2023-02-02T18:11:49.956Z,1.43
2023-02-02T18:14:16.565Z,1.68
2023-02-02T18:16:43.201Z,1.77
2023-02-02T18:19:10.405Z,1.82
2023-02-02T18:21:37.590Z,1.91
2023-02-02T18:24:04.406Z,1.83
2023-02-02T18:26:32.632Z,1.79
2023-02-02T18:28:59.567Z,1.80
2023-02-02T18:31:27.208Z,1.60
2023-02-02T18:33:54.494Z,1.64
2023-02-02T18:36:23.505Z,1.84
2023-02-02T18:38:51.429Z,1.91
2023-02-02T18:41:19.729Z,2.18
2023-02-02T18:43:46.404Z,2.12
2023-02-02T18:46:15.778Z,2.40
2023-02-02T18:48:43.494Z,2.60
2023-02-02T18:51:18.822Z,2.88
2023-02-02T18:53:47.018Z,2.98
2023-02-02T18:56:15.267Z,3.09
2023-02-02T18:58:42.051Z,3.12
2023-02-02T19:01:11.644Z,3.17
2023-02-02T19:03:39.491Z,2.92
2023-02-02T19:06:26.314Z,2.57
2023-02-02T19:08:53.094Z,2.39
2023-02-02T19:11:23.035Z,2.28
2023-02-02T19:13:50.675Z,2.28
2023-02-02T19:16:20.325Z,2.53
2023-02-02T19:18:47.047Z,2.65
2023-02-02T19:21:14.822Z,2.77
2023-02-02T19:23:43.087Z,3.01
2023-02-02T19:26:31.578Z,2.78
2023-02-02T19:29:05.848Z,2.96
2023-02-02T19:31:32.485Z,3.11
2023-02-02T19:33:59.170Z,3.20
2023-02-02T19:36:27.862Z,3.22
2023-02-02T19:39:17.093Z,3.42
2023-02-02T19:41:43.799Z,3.31
2023-02-02T19:44:22.267Z,3.36
2023-02-02T19:46:52.183Z,3.36
2023-02-02T19:49:33.365Z,3.46
2023-02-02T19:52:04.194Z,3.44
2023-02-02T19:54:36.724Z,3.33
2023-02-02T19:57:21.326Z,3.45
2023-02-02T19:59:50.746Z,3.49
2023-02-02T20:02:44.048Z,3.52
2023-02-02T20:05:10.588Z,3.34
2023-02-02T20:07:39.097Z,3.11
2023-02-02T20:10:24.831Z,3.19
2023-02-02T20:12:53.253Z,2.93
2023-02-02T20:15:31.112Z,3.13
2023-02-02T20:18:00.242Z,3.15
2023-02-02T20:20:32.522Z,3.32
2023-02-02T20:22:59.287Z,3.40
2023-02-02T20:25:25.991Z,3.34
2023-02-02T20:27:53.746Z,3.05
2023-02-02T20:30:24.958Z,3.13
2023-02-02T20:32:55.676Z,3.34
2023-02-02T20:35:24.086Z,3.08
2023-02-02T20:37:50.959Z,3.08
2023-02-02T20:40:20.231Z,3.08
2023-02-02T20:42:50.071Z,3.19
2023-02-02T20:45:18.175Z,3.35
2023-02-02T20:47:45.974Z,3.20
2023-02-02T20:50:15.652Z,3.30
2023-02-02T20:52:42.641Z,3.34
2023-02-02T20:55:10.326Z,3.32
2023-02-02T20:57:38.621Z,3.12
2023-02-02T21:00:07.788Z,3.20
2023-02-02T21:02:34.442Z,3.32
2023-02-02T21:05:01.487Z,3.38
2023-02-02T21:07:28.159Z,3.34
2023-02-02T21:09:55.093Z,3.17
2023-02-02T21:12:25.445Z,3.01
2023-02-02T21:14:54.097Z,3.27
2023-02-02T21:17:20.886Z,3.20
2023-02-02T21:19:47.641Z,3.24
2023-02-02T21:22:14.492Z,3.25
2023-02-02T21:24:41.455Z,3.15
2023-02-02T21:27:09.036Z,3.11
2023-02-02T21:29:35.954Z,3.00
2023-02-02T21:32:03.354Z,2.98
2023-02-02T21:34:31.469Z,2.91
2023-02-02T21:36:58.484Z,2.68
2023-02-02T21:39:32.221Z,2.60
2023-02-02T21:42:07.919Z,2.16
2023-02-02T21:44:46.812Z,1.96
2023-02-02T21:47:19.412Z,2.04
2023-02-02T21:49:46.048Z,2.19
2023-02-02T21:52:17.430Z,1.73
2023-02-02T21:54:45.292Z,1.86
2023-02-02T21:57:14.862Z,2.07
2023-02-02T21:59:41.416Z,1.72
2023-02-02T22:02:44.472Z,1.15
2023-02-02T22:05:19.122Z,1.07
2023-02-02T22:07:48.609Z,1.11
2023-02-02T22:10:25.573Z,1.24
2023-02-02T22:12:52.435Z,1.35
2023-02-02T22:15:22.887Z,1.38
2023-02-02T22:17:49.599Z,1.45
2023-02-02T22:20:16.195Z,1.34
2023-02-02T22:22:46.557Z,1.36
2023-02-02T22:25:16.173Z,1.04
2023-02-02T22:27:48.572Z,1.09
2023-02-02T22:30:36.341Z,1.17
2023-02-02T22:33:04.424Z,0.99
2023-02-02T22:35:31.428Z,1.14
2023-02-02T22:37:58.000Z,1.40
2023-02-02T22:40:25.242Z,1.35
2023-02-02T22:42:53.629Z,1.66
2023-02-02T22:45:20.792Z,2.07
2023-02-02T22:47:47.875Z,2.00
2023-02-02T22:50:16.047Z,1.87
2023-02-02T22:52:43.248Z,2.07
2023-02-02T22:55:11.328Z,2.12
2023-02-02T22:57:38.075Z,2.19
2023-02-02T23:00:13.906Z,2.32
2023-02-02T23:02:41.601Z,2.28
2023-02-02T23:05:10.582Z,2.03
2023-02-02T23:07:37.779Z,2.34
2023-02-02T23:10:06.195Z,2.48
2023-02-02T23:12:33.594Z,2.64
2023-02-02T23:15:00.184Z,2.31
2023-02-02T23:17:26.767Z,1.89
2023-02-02T23:19:53.327Z,2.22
2023-02-02T23:22:19.932Z,2.10
2023-02-02T23:24:46.511Z,1.85
2023-02-02T23:27:13.237Z,2.20
2023-02-02T23:29:40.052Z,2.33
2023-02-02T23:32:07.204Z,2.32
2023-02-02T23:34:33.908Z,2.33
2023-02-02T23:37:00.545Z,2.05
2023-02-02T23:39:27.197Z,2.10
2023-02-02T23:41:53.809Z,1.95
2023-02-02T23:44:20.382Z,2.03
2023-02-02T23:46:47.235Z,1.88
2023-02-02T23:49:14.301Z,1.81
2023-02-02T23:51:40.982Z,1.54
2023-02-02T23:54:09.911Z,1.57
2023-02-02T23:56:36.952Z,1.65
2023-02-02T23:59:03.687Z,1.76
